createdAt,value
2022-12-31T00:02:23.683Z,93.03
2022-12-31T00:04:51.303Z,90.98
2022-12-31T00:07:18.453Z,91.49
2022-12-31T00:09:45.682Z,93.07
2022-12-31T00:12:13.193Z,93.40
2022-12-31T00:14:40.356Z,93.06
2022-12-31T00:17:07.597Z,92.63
2022-12-31T00:19:35.074Z,92.91
2022-12-31T00:22:02.241Z,93.70
2022-12-31T00:24:31.180Z,96.01
2022-12-31T00:26:58.701Z,94.33
2022-12-31T00:29:25.907Z,95.70
2022-12-31T00:31:53.071Z,93.96
2022-12-31T00:34:20.524Z,93.09
2022-12-31T00:36:47.689Z,93.13
2022-12-31T00:39:14.903Z,92.24
2022-12-31T00:41:44.065Z,91.35
2022-12-31T00:44:12.415Z,92.52
2022-12-31T00:49:06.359Z,91.10
2022-12-31T00:51:33.605Z,92.70
2022-12-31T00:54:03.482Z,93.64
2022-12-31T00:56:31.612Z,93.10
2022-12-31T00:58:59.647Z,93.76
2022-12-31T01:01:35.206Z,93.92
2022-12-31T01:04:09.862Z,95.68
2022-12-31T01:06:37.267Z,93.36
2022-12-31T01:09:06.562Z,93.06
2022-12-31T01:11:34.036Z,92.78
2022-12-31T01:14:02.704Z,93.20
2022-12-31T01:16:30.095Z,94.06
2022-12-31T01:18:59.364Z,94.53
2022-12-31T01:21:27.128Z,95.36
2022-12-31T01:23:54.557Z,95.62
2022-12-31T01:26:21.853Z,95.13
2022-12-31T01:28:49.177Z,95.79
2022-12-31T01:31:20.066Z,95.78
2022-12-31T01:33:47.685Z,94.53
2022-12-31T01:36:21.875Z,95.15
2022-12-31T01:38:54.117Z,95.67
2022-12-31T01:41:27.234Z,93.54
2022-12-31T01:43:55.739Z,94.03
2022-12-31T01:46:36.884Z,94.25
2022-12-31T01:50:00.545Z,97.41
2022-12-31T01:52:31.541Z,97.60
2022-12-31T01:55:10.061Z,97.00
2022-12-31T01:57:37.604Z,95.70
2022-12-31T02:00:06.187Z,94.65
2022-12-31T02:02:34.145Z,94.41
2022-12-31T02:05:03.493Z,92.75
2022-12-31T02:07:30.788Z,93.06
2022-12-31T02:09:57.946Z,93.86
2022-12-31T02:12:25.404Z,94.15
2022-12-31T02:14:53.829Z,94.42
2022-12-31T02:17:33.063Z,93.37
2022-12-31T02:20:29.358Z,93.26
2022-12-31T02:23:38.904Z,92.79
2022-12-31T02:26:33.100Z,91.88
2022-12-31T02:29:26.520Z,90.60
2022-12-31T02:32:04.254Z,89.91
2022-12-31T02:34:37.276Z,89.97
2022-12-31T02:37:08.431Z,91.67
2022-12-31T02:39:36.542Z,94.02
2022-12-31T02:42:03.879Z,92.49
2022-12-31T02:44:35.570Z,93.67
2022-12-31T02:47:02.574Z,94.74
2022-12-31T02:49:54.521Z,94.36
2022-12-31T02:52:36.389Z,95.74
2022-12-31T02:55:28.181Z,95.70
2022-12-31T02:58:08.191Z,94.98
2022-12-31T03:01:01.397Z,94.56
2022-12-31T03:03:29.231Z,95.15
2022-12-31T03:05:57.219Z,95.03
2022-12-31T03:08:27.109Z,95.66
2022-12-31T03:10:56.845Z,95.80
2022-12-31T03:13:24.664Z,95.69
2022-12-31T03:15:51.834Z,95.93
2022-12-31T03:18:40.129Z,96.27
2022-12-31T03:21:31.332Z,96.09
2022-12-31T03:24:17.283Z,95.81
2022-12-31T03:26:44.414Z,96.51
2022-12-31T03:29:11.864Z,96.97
2022-12-31T03:31:39.012Z,98.22
2022-12-31T03:34:06.086Z,98.29
2022-12-31T03:36:33.411Z,97.56
2022-12-31T03:39:00.480Z,98.40
2022-12-31T03:41:27.543Z,97.48
2022-12-31T03:43:54.927Z,96.70
2022-12-31T03:46:22.089Z,96.04
2022-12-31T03:48:49.187Z,96.09
2022-12-31T03:51:16.849Z,96.40
2022-12-31T03:53:43.958Z,96.90
2022-12-31T03:56:11.032Z,95.08
2022-12-31T03:58:38.513Z,94.35
2022-12-31T04:01:05.705Z,94.46
2022-12-31T04:03:33.132Z,93.72
2022-12-31T04:06:00.253Z,93.34
2022-12-31T04:08:27.379Z,93.40
2022-12-31T04:10:54.773Z,94.45
2022-12-31T04:13:21.862Z,94.27
2022-12-31T04:15:52.133Z,94.38
2022-12-31T04:18:19.505Z,93.91
2022-12-31T04:20:46.593Z,94.85
2022-12-31T04:23:13.662Z,94.40
2022-12-31T04:25:41.026Z,93.55
2022-12-31T04:28:11.238Z,93.55
2022-12-31T04:30:38.289Z,94.04
2022-12-31T04:33:05.662Z,94.75
2022-12-31T04:35:32.732Z,94.36
2022-12-31T04:37:59.772Z,93.88
2022-12-31T04:40:27.208Z,94.45
2022-12-31T04:42:54.324Z,94.67
2022-12-31T04:45:21.434Z,94.74
2022-12-31T04:47:48.805Z,94.96
2022-12-31T04:50:15.880Z,94.52
2022-12-31T04:52:43.201Z,95.29
2022-12-31T04:55:11.374Z,95.74
2022-12-31T04:57:38.935Z,95.11
2022-12-31T05:00:06.664Z,94.57
2022-12-31T05:02:34.190Z,95.17
2022-12-31T05:05:01.383Z,94.87
2022-12-31T05:07:28.473Z,94.19
2022-12-31T05:09:55.795Z,94.08
2022-12-31T05:12:22.856Z,95.06
2022-12-31T05:14:49.949Z,94.39
2022-12-31T05:17:17.357Z,93.46
2022-12-31T05:19:44.451Z,94.51
2022-12-31T05:22:29.461Z,95.87
2022-12-31T05:25:00.532Z,96.39
2022-12-31T05:27:31.004Z,95.65
2022-12-31T05:29:59.007Z,95.12
2022-12-31T05:32:26.369Z,95.22
2022-12-31T05:34:53.652Z,94.49
2022-12-31T05:37:21.031Z,94.63
2022-12-31T05:39:48.091Z,94.28
2022-12-31T05:42:15.952Z,95.05
2022-12-31T05:44:43.295Z,94.95
2022-12-31T05:47:10.360Z,94.82
2022-12-31T05:49:37.417Z,95.52
2022-12-31T05:52:05.076Z,95.47
2022-12-31T05:54:32.140Z,95.64
2022-12-31T05:56:59.766Z,95.50
2022-12-31T05:59:27.179Z,95.11
2022-12-31T06:01:54.337Z,94.74
2022-12-31T06:04:21.770Z,94.39
2022-12-31T06:06:48.922Z,95.09
2022-12-31T06:09:17.729Z,95.25
2022-12-31T06:11:46.483Z,95.62
2022-12-31T06:14:13.849Z,96.05
2022-12-31T06:16:41.351Z,96.03
2022-12-31T06:19:09.534Z,95.47
2022-12-31T06:21:36.576Z,95.64
2022-12-31T06:24:03.809Z,95.68
2022-12-31T06:26:31.194Z,96.16
2022-12-31T06:28:58.276Z,96.25
2022-12-31T06:31:25.402Z,95.90
2022-12-31T06:33:52.752Z,96.11
2022-12-31T06:36:21.788Z,96.48
2022-12-31T06:38:49.198Z,96.01
2022-12-31T06:41:18.311Z,96.39
2022-12-31T06:43:45.855Z,96.63
2022-12-31T06:46:16.265Z,96.53
2022-12-31T06:48:44.943Z,96.77
2022-12-31T06:51:17.349Z,97.27
2022-12-31T06:53:46.220Z,97.26
2022-12-31T06:56:19.531Z,97.00
2022-12-31T06:58:47.449Z,96.18
2022-12-31T07:01:41.937Z,96.47
2022-12-31T07:04:40.681Z,96.37
2022-12-31T07:07:22.100Z,96.10
2022-12-31T07:10:13.649Z,96.81
2022-12-31T07:13:18.276Z,97.56
2022-12-31T07:16:07.544Z,97.20
2022-12-31T07:18:48.358Z,97.82
2022-12-31T07:21:17.986Z,96.57
2022-12-31T07:23:45.607Z,97.10
2022-12-31T07:26:25.398Z,97.44
2022-12-31T07:29:17.227Z,97.56
2022-12-31T07:32:02.492Z,97.21
2022-12-31T07:34:37.436Z,96.88
2022-12-31T07:37:21.421Z,95.93
2022-12-31T07:40:05.975Z,96.06
2022-12-31T07:42:51.344Z,94.18
2022-12-31T07:45:38.027Z,93.26
2022-12-31T07:48:18.912Z,94.08
2022-12-31T07:50:46.523Z,94.15
2022-12-31T07:53:13.964Z,94.20
2022-12-31T07:55:41.570Z,94.53
2022-12-31T07:58:20.430Z,95.53
2022-12-31T08:00:48.457Z,95.05
2022-12-31T08:03:34.616Z,95.02
2022-12-31T08:06:26.264Z,95.12
2022-12-31T08:09:00.445Z,94.53
2022-12-31T08:11:42.615Z,93.69
2022-12-31T08:14:12.278Z,94.74
2022-12-31T08:16:39.761Z,95.21
2022-12-31T08:19:07.566Z,95.03
2022-12-31T08:21:48.932Z,94.74
2022-12-31T08:24:35.800Z,95.32
2022-12-31T08:27:23.023Z,94.97
2022-12-31T08:29:56.698Z,95.49
2022-12-31T08:32:43.809Z,94.83
2022-12-31T08:35:26.397Z,94.54
2022-12-31T08:38:07.141Z,93.89
2022-12-31T08:40:34.124Z,93.30
2022-12-31T08:43:10.495Z,94.93
2022-12-31T08:45:46.741Z,95.14
2022-12-31T08:48:27.455Z,94.24
2022-12-31T08:50:54.872Z,94.01
2022-12-31T08:53:22.730Z,92.85
2022-12-31T08:55:55.770Z,92.88
2022-12-31T08:58:41.971Z,95.04
2022-12-31T09:01:09.766Z,95.19
2022-12-31T09:03:49.187Z,94.85
2022-12-31T09:06:38.579Z,95.24
2022-12-31T09:09:21.215Z,95.32
2022-12-31T09:11:54.885Z,95.98
2022-12-31T09:14:43.372Z,96.10
2022-12-31T09:17:10.385Z,96.53
2022-12-31T09:19:37.832Z,96.27
2022-12-31T09:22:05.820Z,95.23
2022-12-31T09:24:33.219Z,94.58
2022-12-31T09:27:22.458Z,94.91
2022-12-31T09:30:09.537Z,93.33
2022-12-31T09:33:00.742Z,93.84
2022-12-31T09:35:47.281Z,93.64
2022-12-31T09:38:43.020Z,93.35
2022-12-31T09:41:37.751Z,93.10
2022-12-31T09:44:23.791Z,93.03
2022-12-31T09:47:17.573Z,92.70
2022-12-31T09:50:15.946Z,92.55
2022-12-31T09:53:13.425Z,92.06
2022-12-31T09:56:11.592Z,92.29
2022-12-31T09:58:56.753Z,91.89
2022-12-31T10:01:45.700Z,91.82
2022-12-31T10:04:40.063Z,92.14
2022-12-31T10:07:19.277Z,91.49
2022-12-31T10:09:50.203Z,92.41
2022-12-31T10:12:42.545Z,92.82
2022-12-31T10:15:28.336Z,92.53
2022-12-31T10:18:01.241Z,92.87
2022-12-31T10:20:47.298Z,92.71
2022-12-31T10:23:38.717Z,91.74
2022-12-31T10:26:18.137Z,92.40
2022-12-31T10:28:45.202Z,92.74
2022-12-31T10:31:16.959Z,93.06
2022-12-31T10:34:17.585Z,93.62
2022-12-31T10:37:05.362Z,91.39
2022-12-31T10:39:49.991Z,91.78
2022-12-31T10:42:29.340Z,92.23
2022-12-31T10:45:20.746Z,92.32
2022-12-31T10:48:25.535Z,92.53
2022-12-31T10:51:05.168Z,91.08
2022-12-31T10:54:04.891Z,90.42
2022-12-31T10:57:01.100Z,90.03
2022-12-31T10:59:58.264Z,90.92
2022-12-31T11:02:28.523Z,91.94
2022-12-31T11:05:14.735Z,92.26
2022-12-31T11:08:20.782Z,91.48
2022-12-31T11:11:18.059Z,92.21
2022-12-31T11:13:45.038Z,92.78
2022-12-31T11:16:20.644Z,93.00
2022-12-31T11:18:51.737Z,94.22
2022-12-31T11:21:43.952Z,94.44
2022-12-31T11:24:13.880Z,93.04
2022-12-31T11:27:20.151Z,93.30
2022-12-31T11:30:25.160Z,93.70
2022-12-31T11:33:20.056Z,93.01
2022-12-31T11:36:00.562Z,92.66
2022-12-31T11:38:38.514Z,92.23
2022-12-31T11:41:08.007Z,92.36
2022-12-31T11:43:41.032Z,92.50
2022-12-31T11:46:21.609Z,91.80
2022-12-31T11:48:52.003Z,92.11
2022-12-31T11:51:33.970Z,91.79
2022-12-31T11:54:13.665Z,91.10
2022-12-31T11:56:42.202Z,91.42
2022-12-31T11:59:17.126Z,90.93
2022-12-31T12:01:52.776Z,90.31
2022-12-31T12:04:20.005Z,90.15
2022-12-31T12:06:48.584Z,89.45
2022-12-31T12:09:22.531Z,90.47
2022-12-31T12:11:59.809Z,90.45
2022-12-31T12:14:38.360Z,90.14
2022-12-31T12:17:32.237Z,90.09
2022-12-31T12:20:10.859Z,89.82
2022-12-31T12:22:51.887Z,90.11
2022-12-31T12:25:21.714Z,88.34
2022-12-31T12:27:49.251Z,88.04
2022-12-31T12:30:27.994Z,88.56
2022-12-31T12:33:02.050Z,87.77
2022-12-31T12:35:31.870Z,87.51
2022-12-31T12:38:06.007Z,89.16
2022-12-31T12:40:34.626Z,90.62
2022-12-31T12:43:02.896Z,90.24
2022-12-31T12:45:52.383Z,90.15
2022-12-31T12:48:31.359Z,89.07
2022-12-31T12:50:59.883Z,88.42
2022-12-31T12:53:27.254Z,88.64
2022-12-31T12:56:06.772Z,89.08
2022-12-31T12:58:52.153Z,89.65
2022-12-31T13:01:30.975Z,89.61
2022-12-31T13:04:35.212Z,88.56
2022-12-31T13:07:14.812Z,87.56
2022-12-31T13:09:42.103Z,86.88
2022-12-31T13:12:56.783Z,87.37
2022-12-31T13:15:33.584Z,87.21
2022-12-31T13:18:04.051Z,87.55
2022-12-31T13:20:50.429Z,89.13
2022-12-31T13:23:49.532Z,90.91
2022-12-31T13:26:24.333Z,90.00
2022-12-31T13:28:52.907Z,89.72
2022-12-31T13:31:25.056Z,90.21
2022-12-31T13:33:59.420Z,89.77
2022-12-31T13:36:28.705Z,89.96
2022-12-31T13:38:58.321Z,88.99
2022-12-31T13:41:26.935Z,89.72
2022-12-31T13:44:20.588Z,89.33
2022-12-31T13:47:03.111Z,89.22
2022-12-31T13:49:36.339Z,89.54
2022-12-31T13:52:22.033Z,88.59
2022-12-31T13:55:18.584Z,88.10
2022-12-31T13:58:08.633Z,88.33
2022-12-31T14:00:44.228Z,90.14
2022-12-31T14:03:38.383Z,89.87
2022-12-31T14:06:11.300Z,89.84
2022-12-31T14:08:40.152Z,89.81
2022-12-31T14:11:19.092Z,89.33
2022-12-31T14:14:13.643Z,89.50
2022-12-31T14:17:21.081Z,89.29
2022-12-31T14:20:06.737Z,89.52
2022-12-31T14:22:54.407Z,89.05
2022-12-31T14:25:47.941Z,88.92
2022-12-31T14:28:24.275Z,88.54
2022-12-31T14:30:56.406Z,88.34
2022-12-31T14:33:30.999Z,88.14
2022-12-31T14:36:10.967Z,87.80
2022-12-31T14:38:56.492Z,87.33
2022-12-31T14:41:53.161Z,87.25
2022-12-31T14:44:44.917Z,86.87
2022-12-31T14:47:30.613Z,88.41
2022-12-31T14:50:09.777Z,88.71
2022-12-31T14:53:06.242Z,88.58
2022-12-31T14:55:36.073Z,88.89
2022-12-31T14:58:28.882Z,89.57
2022-12-31T15:01:01.699Z,89.94
2022-12-31T15:03:31.902Z,89.73
2022-12-31T15:06:13.878Z,90.27
2022-12-31T15:09:19.937Z,90.78
2022-12-31T15:11:55.875Z,91.72
2022-12-31T15:14:38.334Z,91.48
2022-12-31T15:17:31.135Z,91.91
2022-12-31T15:20:20.443Z,91.78
2022-12-31T15:22:49.323Z,92.51
2022-12-31T15:25:21.662Z,92.44
2022-12-31T15:27:49.033Z,93.24
2022-12-31T15:30:28.657Z,93.34
2022-12-31T15:32:57.777Z,93.10
2022-12-31T15:35:43.983Z,92.50
2022-12-31T15:38:11.063Z,92.89
2022-12-31T15:40:50.410Z,93.42
2022-12-31T15:43:26.636Z,93.73
2022-12-31T15:45:55.243Z,93.56
2022-12-31T15:48:32.517Z,93.08
2022-12-31T15:51:01.408Z,93.01
2022-12-31T15:53:39.339Z,93.85
2022-12-31T15:56:08.075Z,94.96
2022-12-31T15:58:36.796Z,94.84
2022-12-31T16:01:13.015Z,94.68
2022-12-31T16:03:55.732Z,95.00
2022-12-31T16:06:23.316Z,95.13
2022-12-31T16:08:50.765Z,95.34
2022-12-31T16:11:18.291Z,95.22
2022-12-31T16:13:50.001Z,95.21
2022-12-31T16:16:28.201Z,95.27
2022-12-31T16:18:56.296Z,94.85
2022-12-31T16:21:28.163Z,94.69
2022-12-31T16:23:57.999Z,94.11
2022-12-31T16:26:30.267Z,94.48
2022-12-31T16:29:00.197Z,94.79
2022-12-31T16:31:28.703Z,95.20
2022-12-31T16:34:13.584Z,95.04
2022-12-31T16:36:41.593Z,94.62
2022-12-31T16:39:38.223Z,94.60
2022-12-31T16:42:14.513Z,95.19
2022-12-31T16:44:41.942Z,95.17
2022-12-31T16:47:14.071Z,95.42
2022-12-31T16:49:41.512Z,95.71
2022-12-31T16:52:31.264Z,96.05
2022-12-31T16:54:59.204Z,95.62
2022-12-31T16:57:29.327Z,96.38
2022-12-31T17:00:06.998Z,96.75
2022-12-31T17:02:45.614Z,97.18
2022-12-31T17:05:18.770Z,97.15
2022-12-31T17:07:46.235Z,96.69
2022-12-31T17:10:27.747Z,96.87
2022-12-31T17:15:48.296Z,98.59
2022-12-31T17:18:21.112Z,99.05
2022-12-31T17:20:50.519Z,99.43
2022-12-31T17:23:24.087Z,98.39
2022-12-31T17:25:58.911Z,98.81
2022-12-31T17:28:27.752Z,98.36
2022-12-31T17:31:00.235Z,98.68
2022-12-31T17:33:28.909Z,98.03
2022-12-31T17:36:21.451Z,97.39
2022-12-31T17:38:48.984Z,97.74
2022-12-31T17:41:26.663Z,98.10
2022-12-31T17:43:55.474Z,98.50
2022-12-31T17:46:23.780Z,99.01
2022-12-31T17:48:58.369Z,99.01
2022-12-31T17:51:25.917Z,98.28
2022-12-31T17:53:53.090Z,97.96
2022-12-31T17:56:20.660Z,97.00
2022-12-31T17:58:51.291Z,96.97
2022-12-31T18:01:22.186Z,97.09
2022-12-31T18:03:50.234Z,97.39
2022-12-31T18:06:19.419Z,98.56
2022-12-31T18:08:46.771Z,98.58
2022-12-31T18:11:20.598Z,98.12
2022-12-31T18:13:47.973Z,98.50
2022-12-31T18:16:15.579Z,97.85
2022-12-31T18:18:43.768Z,97.63
2022-12-31T18:21:21.938Z,97.95
2022-12-31T18:23:49.958Z,97.93
2022-12-31T18:26:22.365Z,98.03
2022-12-31T18:28:50.316Z,97.41
2022-12-31T18:31:21.075Z,96.66
2022-12-31T18:33:48.875Z,96.91
2022-12-31T18:36:17.770Z,97.80
2022-12-31T18:38:45.314Z,98.44
2022-12-31T18:41:24.685Z,98.64
2022-12-31T18:43:52.194Z,99.27
2022-12-31T18:46:21.809Z,100.00
2022-12-31T18:48:48.976Z,100.00
2022-12-31T18:51:18.720Z,100.00
2022-12-31T18:53:46.028Z,100.00
2022-12-31T18:56:15.226Z,99.78
2022-12-31T18:58:42.980Z,99.98
2022-12-31T19:01:22.387Z,99.25
2022-12-31T19:03:49.808Z,98.88
2022-12-31T19:06:16.873Z,98.95
2022-12-31T19:08:43.948Z,100.00
2022-12-31T19:11:15.126Z,100.00
2022-12-31T19:13:42.511Z,100.00
2022-12-31T19:16:10.368Z,99.30
2022-12-31T19:18:37.774Z,98.52
2022-12-31T19:21:04.985Z,99.24
2022-12-31T19:23:32.101Z,98.88
2022-12-31T19:25:59.509Z,99.22
2022-12-31T19:28:27.673Z,99.53
2022-12-31T19:30:54.982Z,100.00
2022-12-31T19:33:22.586Z,100.00
2022-12-31T19:35:49.725Z,99.30
2022-12-31T19:38:17.680Z,99.84
2022-12-31T19:40:45.779Z,100.00
2022-12-31T19:43:14.564Z,100.00
2022-12-31T19:45:43.004Z,100.00
2022-12-31T19:48:12.595Z,100.00
2022-12-31T19:50:47.504Z,100.00
2022-12-31T19:53:18.180Z,100.00
2022-12-31T19:55:45.436Z,100.00
2022-12-31T19:58:18.113Z,100.00
2022-12-31T20:00:53.702Z,100.00
2022-12-31T20:03:23.826Z,100.00
2022-12-31T20:05:51.116Z,100.00
2022-12-31T20:08:20.290Z,100.00
2022-12-31T20:10:47.885Z,100.00
2022-12-31T20:13:15.038Z,100.00
2022-12-31T20:15:47.610Z,100.00
2022-12-31T20:18:20.906Z,100.00
2022-12-31T20:20:55.292Z,100.00
2022-12-31T20:23:23.408Z,100.00
2022-12-31T20:25:58.050Z,100.00
2022-12-31T20:28:25.744Z,100.00
2022-12-31T20:30:53.049Z,100.00
2022-12-31T20:33:20.485Z,100.00
2022-12-31T20:35:48.248Z,100.00
2022-12-31T20:38:15.501Z,100.00
2022-12-31T20:40:46.703Z,100.00
2022-12-31T20:43:14.650Z,100.00
2022-12-31T20:45:41.978Z,100.00
2022-12-31T20:48:09.156Z,100.00
2022-12-31T20:50:36.631Z,100.00
2022-12-31T20:53:03.768Z,99.53
2022-12-31T20:55:32.258Z,99.80
2022-12-31T20:58:00.602Z,99.82
2022-12-31T21:00:27.747Z,100.00
2022-12-31T21:03:04.929Z,100.00
2022-12-31T21:05:35.936Z,100.00
2022-12-31T21:08:03.403Z,100.00
2022-12-31T21:10:30.559Z,100.00
2022-12-31T21:12:57.995Z,99.22
2022-12-31T21:15:25.153Z,100.00
2022-12-31T21:17:52.371Z,100.00
2022-12-31T21:20:19.805Z,100.00
2022-12-31T21:22:49.753Z,100.00
2022-12-31T21:25:16.954Z,99.56
2022-12-31T21:27:47.136Z,98.89
2022-12-31T21:30:19.040Z,99.88
2022-12-31T21:32:47.321Z,97.86
2022-12-31T21:38:03.957Z,99.64
2022-12-31T21:40:31.689Z,99.41
2022-12-31T21:42:59.077Z,99.93
2022-12-31T21:45:26.612Z,100.00
2022-12-31T21:48:12.172Z,100.00
2022-12-31T21:50:39.615Z,100.00
2022-12-31T21:53:06.742Z,100.00
2022-12-31T21:55:52.575Z,100.00
2022-12-31T21:58:28.127Z,100.00
2022-12-31T22:01:15.293Z,99.93
2022-12-31T22:03:43.643Z,100.00
2022-12-31T22:06:14.298Z,100.00
2022-12-31T22:08:43.047Z,100.00
2022-12-31T22:11:11.937Z,100.00
2022-12-31T22:13:39.309Z,100.00
2022-12-31T22:16:07.449Z,100.00
2022-12-31T22:18:39.008Z,100.00
2022-12-31T22:21:21.273Z,100.00
2022-12-31T22:23:52.114Z,100.00
2022-12-31T22:26:23.482Z,100.00
2022-12-31T22:28:51.434Z,100.00
2022-12-31T22:31:21.154Z,100.00
2022-12-31T22:33:48.850Z,100.00
2022-12-31T22:36:19.380Z,100.00
2022-12-31T22:38:46.892Z,100.00
2022-12-31T22:41:16.234Z,100.00
2022-12-31T22:43:46.232Z,100.00
2022-12-31T22:46:18.758Z,100.00
2022-12-31T22:48:46.773Z,100.00
2022-12-31T22:51:15.288Z,99.42
2022-12-31T22:53:43.559Z,100.00
2022-12-31T22:56:13.582Z,100.00
2022-12-31T22:58:41.054Z,100.00
2022-12-31T23:01:15.459Z,100.00
2022-12-31T23:03:43.161Z,100.00
2022-12-31T23:06:10.502Z,100.00
2022-12-31T23:08:37.662Z,100.00
2022-12-31T23:11:11.305Z,99.96
2022-12-31T23:13:58.727Z,100.00
2022-12-31T23:16:46.534Z,100.00
2022-12-31T23:19:34.341Z,100.00
2022-12-31T23:22:23.362Z,100.00
2022-12-31T23:24:50.508Z,100.00
2022-12-31T23:27:17.939Z,100.00
2022-12-31T23:29:47.510Z,100.00
2022-12-31T23:32:15.934Z,99.12
2022-12-31T23:34:44.592Z,99.67
2022-12-31T23:37:13.269Z,100.00
2022-12-31T23:39:40.617Z,100.00
2022-12-31T23:42:08.458Z,100.00
2022-12-31T23:44:35.672Z,100.00
2022-12-31T23:47:02.886Z,100.00
2022-12-31T23:49:30.445Z,99.26
2022-12-31T23:51:57.579Z,99.83
2022-12-31T23:54:24.717Z,99.85
2022-12-31T23:56:52.139Z,100.00
2022-12-31T23:59:19.350Z,100.00
